createdAt,value
2022-10-03T00:00:10.845Z,11.10
2022-10-03T00:02:43.458Z,11.10
2022-10-03T00:05:16.231Z,11.10
2022-10-03T00:08:06.252Z,11.00
2022-10-03T00:10:56.986Z,11.00
2022-10-03T00:13:26.656Z,11.00
2022-10-03T00:16:12.207Z,10.90
2022-10-03T00:18:48.212Z,10.80
2022-10-03T00:21:21.104Z,10.80
2022-10-03T00:23:57.444Z,10.70
2022-10-03T00:26:28.358Z,10.60
2022-10-03T00:29:13.668Z,10.50
2022-10-03T00:31:40.825Z,10.40
2022-10-03T00:34:07.648Z,10.40
2022-10-03T00:36:52.623Z,10.30
2022-10-03T00:39:27.626Z,10.20
2022-10-03T00:42:07.199Z,10.10
2022-10-03T00:44:45.803Z,10.10
2022-10-03T00:47:21.635Z,10.00
2022-10-03T00:50:01.090Z,10.00
2022-10-03T00:52:36.991Z,9.90
2022-10-03T00:55:28.274Z,10.00
2022-10-03T00:57:57.702Z,9.90
2022-10-03T01:00:27.117Z,9.90
2022-10-03T01:02:59.995Z,9.90
2022-10-03T01:05:35.903Z,9.80
2022-10-03T01:08:20.941Z,9.80
2022-10-03T01:10:47.522Z,9.70
2022-10-03T01:13:32.843Z,9.70
2022-10-03T01:16:14.906Z,9.70
2022-10-03T01:18:44.531Z,9.60
2022-10-03T01:21:17.277Z,9.60
2022-10-03T01:23:59.785Z,9.60
2022-10-03T01:26:46.643Z,9.50
2022-10-03T01:29:37.064Z,9.50
2022-10-03T01:32:23.548Z,9.50
2022-10-03T01:35:02.514Z,9.50
2022-10-03T01:37:53.540Z,9.40
2022-10-03T01:40:26.106Z,9.40
2022-10-03T01:42:55.758Z,9.40
2022-10-03T01:45:41.310Z,9.50
2022-10-03T01:48:10.870Z,9.40
2022-10-03T01:50:44.527Z,9.40
2022-10-03T01:53:30.090Z,9.40
2022-10-03T01:56:02.165Z,9.50
2022-10-03T01:58:32.692Z,9.50
2022-10-03T02:01:04.277Z,9.50
2022-10-03T02:03:35.140Z,9.60
2022-10-03T02:06:01.780Z,9.60
2022-10-03T02:08:33.952Z,9.60
2022-10-03T02:11:02.618Z,9.70
2022-10-03T02:13:35.445Z,9.70
2022-10-03T02:16:27.731Z,9.60
2022-10-03T02:19:06.056Z,9.70
2022-10-03T02:21:33.883Z,9.70
2022-10-03T02:24:26.511Z,9.70
2022-10-03T02:26:56.160Z,9.70
2022-10-03T02:29:34.092Z,9.80
2022-10-03T02:32:19.722Z,9.70
2022-10-03T02:34:53.124Z,9.70
2022-10-03T02:37:37.911Z,9.60
2022-10-03T02:40:08.593Z,9.60
2022-10-03T02:42:35.191Z,9.60
2022-10-03T02:45:20.669Z,9.50
2022-10-03T02:48:30.080Z,9.50
2022-10-03T02:51:17.979Z,9.40
2022-10-03T02:53:44.554Z,9.40
2022-10-03T02:56:11.120Z,9.30
2022-10-03T02:58:46.806Z,9.20
2022-10-03T03:01:22.580Z,9.10
2022-10-03T03:03:49.179Z,9.10
2022-10-03T03:06:31.057Z,9.10
2022-10-03T03:09:15.699Z,9.00
2022-10-03T03:11:48.313Z,9.00
2022-10-03T03:14:34.679Z,8.90
2022-10-03T03:17:17.829Z,8.90
2022-10-03T03:19:53.556Z,8.80
2022-10-03T03:22:39.263Z,8.80
2022-10-03T03:25:19.203Z,8.80
2022-10-03T03:28:04.466Z,8.70
2022-10-03T03:30:54.488Z,8.70
2022-10-03T03:33:26.923Z,8.60
2022-10-03T03:36:15.040Z,8.60
2022-10-03T03:38:58.284Z,8.60
2022-10-03T03:41:24.858Z,8.60
2022-10-03T03:44:06.419Z,8.50
2022-10-03T03:46:32.989Z,8.50
2022-10-03T03:49:22.883Z,8.50
2022-10-03T03:51:49.465Z,8.50
2022-10-03T03:54:24.661Z,8.40
2022-10-03T03:56:57.215Z,8.40
2022-10-03T03:59:27.453Z,8.30
2022-10-03T04:01:54.425Z,8.30
2022-10-03T04:04:27.453Z,8.30
2022-10-03T04:07:07.112Z,8.20
2022-10-03T04:09:59.644Z,8.20
2022-10-03T04:12:45.347Z,8.20
2022-10-03T04:15:34.400Z,8.20
2022-10-03T04:18:28.186Z,8.10
2022-10-03T04:21:33.255Z,8.10
2022-10-03T04:24:20.765Z,8.10
2022-10-03T04:26:51.899Z,8.00
2022-10-03T04:29:37.239Z,8.00
2022-10-03T04:32:13.130Z,8.00
2022-10-03T04:34:50.576Z,8.00
2022-10-03T04:37:17.190Z,7.90
2022-10-03T04:39:55.832Z,7.90
2022-10-03T04:42:41.401Z,7.90
2022-10-03T04:45:18.047Z,7.80
2022-10-03T04:47:59.271Z,7.80
2022-10-03T04:50:26.055Z,7.80
2022-10-03T04:53:11.481Z,7.80
2022-10-03T04:55:54.343Z,7.80
2022-10-03T04:58:20.951Z,7.70
2022-10-03T05:00:59.497Z,7.80
2022-10-03T05:03:35.295Z,7.70
2022-10-03T05:06:23.580Z,7.70
2022-10-03T05:09:16.730Z,7.70
2022-10-03T05:11:55.976Z,7.70
2022-10-03T05:14:26.515Z,7.60
2022-10-03T05:17:09.560Z,7.60
2022-10-03T05:19:50.966Z,7.50
2022-10-03T05:22:25.580Z,7.50
2022-10-03T05:25:04.899Z,7.50
2022-10-03T05:27:40.662Z,7.50
2022-10-03T05:30:25.380Z,7.50
2022-10-03T05:32:56.522Z,7.50
2022-10-03T05:35:26.232Z,7.50
2022-10-03T05:37:55.914Z,7.50
2022-10-03T05:40:22.509Z,7.50
2022-10-03T05:42:58.932Z,7.50
2022-10-03T05:45:44.684Z,7.60
2022-10-03T05:48:14.450Z,7.60
2022-10-03T05:51:00.111Z,7.60
2022-10-03T05:53:42.779Z,7.70
2022-10-03T05:56:09.334Z,7.70
2022-10-03T05:58:54.244Z,7.80
2022-10-03T06:01:39.665Z,7.80
2022-10-03T06:04:25.956Z,7.90
2022-10-03T06:07:10.099Z,8.00
2022-10-03T06:09:55.261Z,8.10
2022-10-03T06:12:25.128Z,8.20
2022-10-03T06:14:54.875Z,8.30
2022-10-03T06:17:50.816Z,8.40
2022-10-03T06:20:23.618Z,8.40
2022-10-03T06:23:09.118Z,8.60
2022-10-03T06:25:54.058Z,8.70
2022-10-03T06:28:28.470Z,8.80
2022-10-03T06:31:01.212Z,8.90
2022-10-03T06:33:46.808Z,9.00
2022-10-03T06:36:16.584Z,9.10
2022-10-03T06:38:46.171Z,9.20
2022-10-03T06:41:33.524Z,9.20
2022-10-03T06:44:15.505Z,9.30
2022-10-03T06:46:50.188Z,9.40
2022-10-03T06:49:16.788Z,9.40
2022-10-03T06:51:49.495Z,9.50
2022-10-03T06:54:22.138Z,9.70
2022-10-03T06:57:00.824Z,9.80
2022-10-03T06:59:36.534Z,10.00
2022-10-03T07:02:22.109Z,10.20
2022-10-03T07:04:55.817Z,10.30
2022-10-03T07:07:22.408Z,10.50
2022-10-03T07:09:49.946Z,10.80
2022-10-03T07:12:33.993Z,10.90
2022-10-03T07:15:03.642Z,11.00
2022-10-03T07:17:35.056Z,11.10
2022-10-03T07:20:07.287Z,11.10
2022-10-03T07:22:49.339Z,11.10
2022-10-03T07:25:45.927Z,11.00
2022-10-03T07:28:31.144Z,11.00
2022-10-03T07:30:57.954Z,11.00
2022-10-03T07:33:31.302Z,11.10
2022-10-03T07:36:21.594Z,11.20
2022-10-03T07:39:11.769Z,11.30
2022-10-03T07:41:41.757Z,11.20
2022-10-03T07:44:27.722Z,11.30
2022-10-03T07:46:57.098Z,11.40
2022-10-03T07:49:56.289Z,11.50
2022-10-03T07:52:25.892Z,11.60
2022-10-03T07:54:52.503Z,11.80
2022-10-03T07:57:38.039Z,11.80
2022-10-03T08:00:15.513Z,11.90
2022-10-03T08:02:45.251Z,12.00
2022-10-03T08:05:30.771Z,12.10
2022-10-03T08:08:00.677Z,12.10
2022-10-03T08:10:49.787Z,12.10
2022-10-03T08:13:25.650Z,12.10
2022-10-03T08:16:05.994Z,12.10
2022-10-03T08:18:42.199Z,12.20
2022-10-03T08:21:11.634Z,12.40
2022-10-03T08:23:41.024Z,12.40
2022-10-03T08:26:27.870Z,12.40
2022-10-03T08:28:54.580Z,12.30
2022-10-03T08:31:53.575Z,12.20
2022-10-03T08:34:32.707Z,12.20
2022-10-03T08:37:18.175Z,12.50
2022-10-03T08:39:47.927Z,12.80
2022-10-03T08:42:31.841Z,13.00
2022-10-03T08:45:16.895Z,13.30
2022-10-03T08:47:55.963Z,13.40
2022-10-03T08:50:34.752Z,13.40
2022-10-03T08:53:11.423Z,13.40
2022-10-03T08:56:07.654Z,13.40
2022-10-03T08:58:36.995Z,13.50
2022-10-03T09:01:12.891Z,13.50
2022-10-03T09:03:58.482Z,13.30
2022-10-03T09:07:12.134Z,13.10
2022-10-03T09:09:38.215Z,13.00
2022-10-03T09:12:05.023Z,12.90
2022-10-03T09:14:36.326Z,13.00
2022-10-03T09:17:23.319Z,12.90
2022-10-03T09:20:08.442Z,12.90
2022-10-03T09:22:47.352Z,13.00
2022-10-03T09:25:43.424Z,13.10
2022-10-03T09:28:28.645Z,13.10
2022-10-03T09:31:03.807Z,13.30
2022-10-03T09:34:06.002Z,13.20
2022-10-03T09:36:51.300Z,13.20
2022-10-03T09:39:20.935Z,13.10
2022-10-03T09:41:50.534Z,13.20
2022-10-03T09:44:35.980Z,13.30
2022-10-03T09:47:24.123Z,13.30
2022-10-03T09:50:03.358Z,13.60
2022-10-03T09:53:08.363Z,14.70
2022-10-03T09:55:43.856Z,15.30
2022-10-03T09:58:22.395Z,15.80
2022-10-03T10:01:02.411Z,16.10
2022-10-03T10:03:47.422Z,16.30
2022-10-03T10:06:34.519Z,16.60
2022-10-03T10:09:19.427Z,16.60
2022-10-03T10:11:55.315Z,16.40
2022-10-03T10:14:21.894Z,16.20
2022-10-03T10:16:58.242Z,16.00
2022-10-03T10:19:24.810Z,15.90
2022-10-03T10:22:03.604Z,16.00
2022-10-03T10:24:49.700Z,16.10
2022-10-03T10:27:35.352Z,16.20
2022-10-03T10:30:12.719Z,16.10
2022-10-03T10:32:58.226Z,16.00
2022-10-03T10:35:28.800Z,15.80
2022-10-03T10:38:13.683Z,15.50
2022-10-03T10:40:48.271Z,15.20
2022-10-03T10:43:20.915Z,14.90
2022-10-03T10:45:50.648Z,14.60
2022-10-03T10:48:36.005Z,14.50
2022-10-03T10:51:21.405Z,14.60
2022-10-03T10:54:06.964Z,15.00
2022-10-03T10:56:36.866Z,15.20
2022-10-03T10:59:03.640Z,15.30
2022-10-03T11:01:48.995Z,15.00
2022-10-03T11:04:19.461Z,14.90
2022-10-03T11:06:58.233Z,14.70
2022-10-03T11:09:28.904Z,14.90
2022-10-03T11:11:55.562Z,15.10
2022-10-03T11:14:30.069Z,15.40
2022-10-03T11:17:03.115Z,15.80
2022-10-03T11:19:53.075Z,16.00
2022-10-03T11:22:35.711Z,16.10
2022-10-03T11:25:12.895Z,16.10
2022-10-03T11:27:58.426Z,15.90
2022-10-03T11:30:37.483Z,15.70
2022-10-03T11:33:23.140Z,15.50
2022-10-03T11:35:52.910Z,15.20
2022-10-03T11:38:25.715Z,15.00
2022-10-03T11:41:11.133Z,14.80
2022-10-03T11:43:50.103Z,14.70
2022-10-03T11:46:19.645Z,14.60
2022-10-03T11:48:50.846Z,14.50
2022-10-03T11:51:37.716Z,14.40
2022-10-03T11:54:31.906Z,14.30
2022-10-03T11:57:04.724Z,14.30
2022-10-03T11:59:34.616Z,14.30
2022-10-03T12:02:21.527Z,14.40
2022-10-03T12:04:48.111Z,14.50
2022-10-03T12:07:42.760Z,14.60
2022-10-03T12:10:18.235Z,14.70
2022-10-03T12:12:47.723Z,14.80
2022-10-03T12:15:23.691Z,15.00
2022-10-03T12:17:57.797Z,15.10
2022-10-03T12:20:26.818Z,15.10
2022-10-03T12:23:08.784Z,15.10
2022-10-03T12:25:36.889Z,15.10
2022-10-03T12:28:14.287Z,15.00
2022-10-03T12:30:48.719Z,15.00
2022-10-03T12:33:15.326Z,15.00
2022-10-03T12:35:51.331Z,14.90
2022-10-03T12:38:26.927Z,14.90
2022-10-03T12:41:18.992Z,14.90
2022-10-03T12:43:48.682Z,14.80
2022-10-03T12:46:15.313Z,14.80
2022-10-03T12:48:44.023Z,14.80
2022-10-03T12:51:31.417Z,14.90
2022-10-03T12:54:05.772Z,14.90
2022-10-03T12:56:41.295Z,15.00
2022-10-03T12:59:26.944Z,15.10
2022-10-03T13:01:59.810Z,15.30
2022-10-03T13:04:34.008Z,15.50
2022-10-03T13:07:04.627Z,15.60
2022-10-03T13:09:37.365Z,15.70
2022-10-03T13:12:23.081Z,15.70
2022-10-03T13:15:12.492Z,15.70
2022-10-03T13:17:52.673Z,15.70
2022-10-03T13:20:42.435Z,15.70
2022-10-03T13:23:32.363Z,15.70
2022-10-03T13:26:18.513Z,15.60
2022-10-03T13:29:13.251Z,15.60
2022-10-03T13:31:48.979Z,15.50
2022-10-03T13:34:18.406Z,15.60
2022-10-03T13:36:57.050Z,15.70
2022-10-03T13:39:26.912Z,15.70
2022-10-03T13:41:59.579Z,15.80
2022-10-03T13:44:36.352Z,15.90
2022-10-03T13:47:02.993Z,16.00
2022-10-03T13:49:34.189Z,16.00
2022-10-03T13:52:07.503Z,15.80
2022-10-03T13:54:34.133Z,15.70
2022-10-03T13:57:06.718Z,15.60
2022-10-03T13:59:52.202Z,15.60
2022-10-03T14:02:42.342Z,15.50
2022-10-03T14:05:21.490Z,15.40
2022-10-03T14:08:07.036Z,15.20
2022-10-03T14:10:48.851Z,15.00
2022-10-03T14:13:17.372Z,14.90
2022-10-03T14:15:50.098Z,14.70
2022-10-03T14:18:46.188Z,14.60
2022-10-03T14:21:32.172Z,14.50
2022-10-03T14:24:01.855Z,14.40
2022-10-03T14:26:34.750Z,14.30
2022-10-03T14:29:12.259Z,14.30
2022-10-03T14:31:46.980Z,14.20
2022-10-03T14:34:37.658Z,14.30
2022-10-03T14:37:22.400Z,14.30
2022-10-03T14:40:07.911Z,14.40
2022-10-03T14:42:34.475Z,14.50
2022-10-03T14:45:03.723Z,14.50
2022-10-03T14:47:35.804Z,14.60
2022-10-03T14:50:02.650Z,14.60
2022-10-03T14:52:37.259Z,14.60
2022-10-03T14:55:12.852Z,14.60
2022-10-03T14:58:08.669Z,14.50
2022-10-03T15:00:38.990Z,14.50
2022-10-03T15:03:17.955Z,14.40
2022-10-03T15:06:10.987Z,14.30
2022-10-03T15:08:39.502Z,14.20
2022-10-03T15:11:07.558Z,14.10
2022-10-03T15:13:38.122Z,14.10
2022-10-03T15:16:05.112Z,14.00
2022-10-03T15:18:32.385Z,13.90
2022-10-03T15:20:59.184Z,13.80
2022-10-03T15:23:45.220Z,13.70
2022-10-03T15:26:18.764Z,13.60
2022-10-03T15:28:47.451Z,13.60
2022-10-03T15:31:32.806Z,13.50
2022-10-03T15:34:01.040Z,13.50
2022-10-03T15:36:38.819Z,13.40
2022-10-03T15:39:08.083Z,13.30
2022-10-03T15:41:49.299Z,13.30
2022-10-03T15:44:20.736Z,13.30
2022-10-03T15:46:53.369Z,13.30
2022-10-03T15:49:28.026Z,13.20
2022-10-03T15:51:55.238Z,13.10
2022-10-03T15:54:22.948Z,13.10
2022-10-03T15:56:52.300Z,13.10
2022-10-03T15:59:23.177Z,13.00
2022-10-03T16:01:52.761Z,12.90
2022-10-03T16:04:21.155Z,12.80
2022-10-03T16:07:07.772Z,12.80
2022-10-03T16:09:45.468Z,12.80
2022-10-03T16:12:15.294Z,12.70
2022-10-03T16:14:51.364Z,12.70
2022-10-03T16:17:29.313Z,12.60
2022-10-03T16:20:02.795Z,12.50
2022-10-03T16:22:34.611Z,12.40
2022-10-03T16:25:14.140Z,12.30
2022-10-03T16:27:47.370Z,12.30
2022-10-03T16:30:21.575Z,12.20
2022-10-03T16:33:03.818Z,12.10
2022-10-03T16:35:32.976Z,12.00
2022-10-03T16:38:01.895Z,11.90
2022-10-03T16:40:28.619Z,11.80
2022-10-03T16:42:56.749Z,11.70
2022-10-03T16:45:23.376Z,11.60
2022-10-03T16:48:10.916Z,11.50
2022-10-03T16:50:42.228Z,11.40
2022-10-03T16:53:11.109Z,11.30
2022-10-03T16:55:45.565Z,11.20
2022-10-03T16:58:31.401Z,11.20
2022-10-03T17:01:26.379Z,11.10
2022-10-03T17:03:56.919Z,11.10
2022-10-03T17:06:44.218Z,11.00
2022-10-03T17:09:29.539Z,10.90
2022-10-03T17:12:00.913Z,10.80
2022-10-03T17:14:32.329Z,10.70
2022-10-03T17:17:04.627Z,10.50
2022-10-03T17:19:37.406Z,10.50
2022-10-03T17:22:14.847Z,10.30
2022-10-03T17:24:58.915Z,10.20
2022-10-03T17:27:36.635Z,10.10
2022-10-03T17:30:15.931Z,10.00
2022-10-03T17:32:43.926Z,10.00
2022-10-03T17:35:21.670Z,9.90
2022-10-03T17:38:24.922Z,9.80
2022-10-03T17:40:53.583Z,9.70
2022-10-03T17:43:27.725Z,9.60
2022-10-03T17:46:12.677Z,9.50
2022-10-03T17:48:59.644Z,9.40
2022-10-03T17:51:36.569Z,9.40
2022-10-03T17:54:06.073Z,9.30
2022-10-03T17:56:34.302Z,9.20
2022-10-03T17:59:11.425Z,9.10
2022-10-03T18:01:43.502Z,9.10
2022-10-03T18:04:21.504Z,9.00
2022-10-03T18:07:01.413Z,9.00
2022-10-03T18:09:43.529Z,8.90
2022-10-03T18:12:22.595Z,8.90
2022-10-03T18:14:58.439Z,8.80
2022-10-03T18:17:44.889Z,8.70
2022-10-03T18:20:30.322Z,8.70
2022-10-03T18:22:59.560Z,8.70
2022-10-03T18:26:18.592Z,8.70
2022-10-03T18:28:41.786Z,8.70
2022-10-03T18:31:10.607Z,8.60
2022-10-03T18:33:42.445Z,8.60
2022-10-03T18:36:19.188Z,8.50
2022-10-03T18:38:47.060Z,8.50
2022-10-03T18:41:15.360Z,8.40
2022-10-03T18:43:45.419Z,8.30
2022-10-03T18:46:32.467Z,8.20
2022-10-03T18:51:58.183Z,8.20
2022-10-03T18:54:31.018Z,8.10
2022-10-03T18:57:03.660Z,8.00
2022-10-03T18:59:34.877Z,8.00
2022-10-03T19:02:03.365Z,7.90
2022-10-03T19:04:35.175Z,7.90
2022-10-03T19:07:03.423Z,7.90
2022-10-03T19:09:34.968Z,7.90
2022-10-03T19:12:15.037Z,7.90
2022-10-03T19:14:56.947Z,7.80
2022-10-03T19:17:31.761Z,7.80
2022-10-03T19:20:00.661Z,7.80
2022-10-03T19:22:31.825Z,7.70
2022-10-03T19:25:02.516Z,7.70
2022-10-03T19:27:52.015Z,7.70
2022-10-03T19:30:23.216Z,7.60
2022-10-03T19:32:49.875Z,7.60
2022-10-03T19:35:19.896Z,7.60
2022-10-03T19:37:51.835Z,7.50
2022-10-03T19:40:30.390Z,7.50
2022-10-03T19:43:01.723Z,7.50
2022-10-03T19:45:28.402Z,7.40
2022-10-03T19:48:00.749Z,7.40
2022-10-03T19:50:28.685Z,7.40
2022-10-03T19:52:55.607Z,7.40
2022-10-03T19:55:22.307Z,7.30
2022-10-03T19:57:48.945Z,7.30
2022-10-03T20:00:15.513Z,7.30
2022-10-03T20:02:43.679Z,7.20
2022-10-03T20:05:20.686Z,7.20
2022-10-03T20:07:51.510Z,7.20
2022-10-03T20:10:23.955Z,7.10
2022-10-03T20:12:51.303Z,7.10
2022-10-03T20:15:22.967Z,7.10
2022-10-03T20:17:50.948Z,7.00
2022-10-03T20:20:21.211Z,7.00
2022-10-03T20:22:49.313Z,7.00
2022-10-03T20:25:29.738Z,7.00
2022-10-03T20:27:58.100Z,7.00
2022-10-03T20:30:45.114Z,7.00
2022-10-03T20:33:23.908Z,7.00
2022-10-03T20:35:56.391Z,6.90
2022-10-03T20:38:46.354Z,7.00
2022-10-03T20:41:15.516Z,6.90
2022-10-03T20:43:44.280Z,6.90
2022-10-03T20:46:15.836Z,6.90
2022-10-03T20:48:51.855Z,6.90
2022-10-03T20:51:22.736Z,6.80
2022-10-03T20:53:53.359Z,6.80
2022-10-03T20:56:22.836Z,6.80
2022-10-03T20:58:57.346Z,6.70
2022-10-03T21:01:27.893Z,6.70
2022-10-03T21:04:05.108Z,6.60
2022-10-03T21:06:33.171Z,6.60
2022-10-03T21:09:02.569Z,6.60
2022-10-03T21:11:30.911Z,6.50
2022-10-03T21:14:06.261Z,6.60
2022-10-03T21:16:34.753Z,6.50
2022-10-03T21:19:02.748Z,6.50
2022-10-03T21:21:34.452Z,6.60
2022-10-03T21:24:10.032Z,6.60
2022-10-03T21:26:47.303Z,6.60
2022-10-03T21:29:17.212Z,6.50
2022-10-03T21:31:52.134Z,6.50
2022-10-03T21:34:39.116Z,6.50
2022-10-03T21:37:22.811Z,6.40
2022-10-03T21:40:02.124Z,6.40
2022-10-03T21:42:48.994Z,6.40
2022-10-03T21:45:31.715Z,6.30
2022-10-03T21:48:14.577Z,6.30
2022-10-03T21:50:44.882Z,6.30
2022-10-03T21:53:14.482Z,6.30
2022-10-03T21:55:52.998Z,6.30
2022-10-03T21:58:28.043Z,6.30
2022-10-03T22:01:00.898Z,6.40
2022-10-03T22:03:31.573Z,6.40
2022-10-03T22:05:58.151Z,6.40
2022-10-03T22:08:26.610Z,6.40
2022-10-03T22:11:08.847Z,6.40
2022-10-03T22:13:41.108Z,6.40
2022-10-03T22:16:07.715Z,6.50
2022-10-03T22:18:53.200Z,6.40
2022-10-03T22:21:24.682Z,6.40
2022-10-03T22:24:03.509Z,6.40
2022-10-03T22:26:37.144Z,6.40
2022-10-03T22:29:08.650Z,6.40
2022-10-03T22:31:35.248Z,6.30
2022-10-03T22:34:04.979Z,6.30
2022-10-03T22:36:34.280Z,6.30
2022-10-03T22:39:00.896Z,6.30
2022-10-03T22:41:29.355Z,6.20
2022-10-03T22:43:57.838Z,6.10
2022-10-03T22:46:26.462Z,6.10
2022-10-03T22:48:59.291Z,6.10
2022-10-03T22:51:26.080Z,6.00
2022-10-03T22:53:54.971Z,6.00
2022-10-03T22:56:33.941Z,6.00
2022-10-03T22:59:01.944Z,5.90
2022-10-03T23:01:29.163Z,5.90
2022-10-03T23:03:56.138Z,5.90
2022-10-03T23:06:26.132Z,5.80
2022-10-03T23:08:52.699Z,5.80
2022-10-03T23:11:22.166Z,5.80
2022-10-03T23:13:49.155Z,5.80
2022-10-03T23:16:15.850Z,5.70
2022-10-03T23:18:43.375Z,5.70
2022-10-03T23:21:10.875Z,5.60
2022-10-03T23:23:52.305Z,5.70
2022-10-03T23:26:48.435Z,5.60
2022-10-03T23:29:15.012Z,5.60
2022-10-03T23:31:49.337Z,5.60
2022-10-03T23:34:34.305Z,5.60
2022-10-03T23:37:04.702Z,5.60
2022-10-03T23:39:32.955Z,5.60
2022-10-03T23:42:01.031Z,5.60
2022-10-03T23:44:31.372Z,5.50
2022-10-03T23:46:59.424Z,5.50
2022-10-03T23:49:26.088Z,5.50
2022-10-03T23:51:53.055Z,5.50
2022-10-03T23:54:19.749Z,5.50
2022-10-03T23:56:48.608Z,5.50
2022-10-03T23:59:15.457Z,5.60
